createdAt,value
2022-08-21T00:02:15.000Z,19.61
2022-08-21T00:04:48.245Z,19.58
2022-08-21T00:07:25.328Z,19.55
2022-08-21T00:09:54.357Z,19.52
2022-08-21T00:12:24.673Z,19.46
2022-08-21T00:14:58.112Z,19.38
2022-08-21T00:17:27.322Z,19.29
2022-08-21T00:19:55.680Z,19.23
2022-08-21T00:22:24.149Z,19.16
2022-08-21T00:24:52.862Z,19.11
2022-08-21T00:27:23.092Z,19.06
2022-08-21T00:29:51.532Z,19.00
2022-08-21T00:32:23.369Z,18.97
2022-08-21T00:34:52.078Z,18.91
2022-08-21T00:37:21.174Z,18.87
2022-08-21T00:39:49.789Z,18.80
2022-08-21T00:42:20.884Z,18.73
2022-08-21T00:44:52.606Z,18.67
2022-08-21T00:47:21.849Z,18.65
2022-08-21T00:49:50.685Z,18.64
2022-08-21T00:52:24.230Z,18.59
2022-08-21T00:54:54.129Z,18.50
2022-08-21T00:57:32.084Z,18.37
2022-08-21T01:00:09.240Z,18.29
2022-08-21T01:02:37.676Z,18.25
2022-08-21T01:05:07.505Z,18.24
2022-08-21T01:07:36.341Z,18.22
2022-08-21T01:10:05.949Z,18.20
2022-08-21T01:12:34.934Z,18.18
2022-08-21T01:15:08.278Z,18.16
2022-08-21T01:17:37.782Z,18.17
2022-08-21T01:20:11.148Z,18.16
2022-08-21T01:22:41.537Z,18.12
2022-08-21T01:25:13.161Z,18.08
2022-08-21T01:27:41.726Z,18.02
2022-08-21T01:30:16.778Z,17.98
2022-08-21T01:32:45.364Z,17.95
2022-08-21T01:35:15.179Z,17.93
2022-08-21T01:37:45.956Z,17.89
2022-08-21T01:40:19.278Z,17.88
2022-08-21T01:42:49.661Z,17.86
2022-08-21T01:45:18.561Z,17.86
2022-08-21T01:47:47.795Z,17.86
2022-08-21T01:50:21.134Z,17.84
2022-08-21T01:52:52.920Z,17.83
2022-08-21T01:55:22.920Z,17.79
2022-08-21T01:57:52.017Z,17.73
2022-08-21T02:00:24.893Z,17.66
2022-08-21T02:02:54.405Z,17.60
2022-08-21T02:05:23.109Z,17.54
2022-08-21T02:07:57.530Z,17.49
2022-08-21T02:10:30.736Z,17.44
2022-08-21T02:13:00.887Z,17.40
2022-08-21T02:15:31.181Z,17.36
2022-08-21T02:18:02.589Z,17.31
2022-08-21T02:20:37.433Z,17.26
2022-08-21T02:23:08.314Z,17.18
2022-08-21T02:25:37.466Z,17.14
2022-08-21T02:28:08.699Z,17.13
2022-08-21T02:30:41.145Z,17.11
2022-08-21T02:33:11.834Z,17.11
2022-08-21T02:35:43.561Z,17.07
2022-08-21T02:38:16.848Z,17.04
2022-08-21T02:40:50.919Z,17.00
2022-08-21T02:43:22.577Z,16.93
2022-08-21T02:45:52.436Z,16.81
2022-08-21T02:48:25.897Z,16.68
2022-08-21T02:50:57.561Z,16.59
2022-08-21T02:53:28.624Z,16.51
2022-08-21T02:56:00.796Z,16.47
2022-08-21T02:58:32.353Z,16.43
2022-08-21T03:01:01.146Z,16.44
2022-08-21T03:03:30.558Z,16.45
2022-08-21T03:05:59.171Z,16.48
2022-08-21T03:08:28.912Z,16.47
2022-08-21T03:10:57.940Z,16.46
2022-08-21T03:13:26.640Z,16.44
2022-08-21T03:15:55.105Z,16.44
2022-08-21T03:18:24.206Z,16.45
2022-08-21T03:20:53.294Z,16.48
2022-08-21T03:23:21.872Z,16.51
2022-08-21T03:25:52.095Z,16.53
2022-08-21T03:28:24.746Z,16.54
2022-08-21T03:30:54.226Z,16.53
2022-08-21T03:33:23.759Z,16.53
2022-08-21T03:36:02.090Z,16.53
2022-08-21T03:38:33.248Z,16.55
2022-08-21T03:41:03.771Z,16.51
2022-08-21T03:43:32.889Z,16.42
2022-08-21T03:46:02.895Z,16.31
2022-08-21T03:48:31.993Z,16.24
2022-08-21T03:51:00.755Z,16.15
2022-08-21T03:53:29.346Z,16.08
2022-08-21T03:55:58.165Z,16.02
2022-08-21T03:58:30.162Z,15.97
2022-08-21T04:01:01.887Z,15.95
2022-08-21T04:03:31.015Z,15.93
2022-08-21T04:06:00.225Z,15.91
2022-08-21T04:08:28.661Z,15.89
2022-08-21T04:11:00.463Z,15.88
2022-08-21T04:13:30.343Z,15.86
2022-08-21T04:16:00.113Z,15.82
2022-08-21T04:18:28.813Z,15.79
2022-08-21T04:20:59.746Z,15.77
2022-08-21T04:23:28.712Z,15.75
2022-08-21T04:25:59.053Z,15.72
2022-08-21T04:28:30.472Z,15.67
2022-08-21T04:31:00.146Z,15.66
2022-08-21T04:33:28.583Z,15.63
2022-08-21T04:35:57.304Z,15.61
2022-08-21T04:38:25.690Z,15.62
2022-08-21T04:40:54.672Z,15.60
2022-08-21T04:43:24.399Z,15.58
2022-08-21T04:45:55.691Z,15.60
2022-08-21T04:48:26.165Z,15.61
2022-08-21T04:50:59.608Z,15.65
2022-08-21T04:53:35.729Z,15.68
2022-08-21T04:56:10.331Z,15.68
2022-08-21T04:58:42.552Z,15.70
2022-08-21T05:01:19.235Z,15.71
2022-08-21T05:03:49.880Z,15.72
2022-08-21T05:06:19.428Z,15.74
2022-08-21T05:08:50.965Z,15.72
2022-08-21T05:11:27.415Z,15.72
2022-08-21T05:13:57.224Z,15.75
2022-08-21T05:16:37.055Z,15.78
2022-08-21T05:19:07.260Z,15.81
2022-08-21T05:21:36.984Z,15.86
2022-08-21T05:24:05.813Z,15.88
2022-08-21T05:26:38.295Z,15.86
2022-08-21T05:29:15.137Z,15.88
2022-08-21T05:31:46.296Z,15.87
2022-08-21T05:34:16.097Z,15.87
2022-08-21T05:36:44.784Z,15.90
2022-08-21T05:39:13.187Z,15.93
2022-08-21T05:41:41.661Z,15.98
2022-08-21T05:44:10.594Z,16.02
2022-08-21T05:46:40.312Z,16.06
2022-08-21T05:49:10.212Z,16.12
2022-08-21T05:51:38.824Z,16.19
2022-08-21T05:54:07.448Z,16.28
2022-08-21T05:56:36.218Z,16.38
2022-08-21T05:59:08.725Z,16.50
2022-08-21T06:01:37.520Z,16.60
2022-08-21T06:04:06.960Z,16.69
2022-08-21T06:06:37.076Z,16.76
2022-08-21T06:09:06.093Z,16.84
2022-08-21T06:11:35.495Z,16.93
2022-08-21T06:14:05.137Z,16.98
2022-08-21T06:16:33.519Z,17.06
2022-08-21T06:19:03.063Z,17.14
2022-08-21T06:21:32.348Z,17.20
2022-08-21T06:24:02.148Z,17.26
2022-08-21T06:26:30.566Z,17.34
2022-08-21T06:28:59.207Z,17.45
2022-08-21T06:31:30.778Z,17.54
2022-08-21T06:33:59.468Z,17.65
2022-08-21T06:36:28.109Z,17.76
2022-08-21T06:38:56.992Z,17.86
2022-08-21T06:41:27.897Z,17.95
2022-08-21T06:43:58.053Z,18.05
2022-08-21T06:46:29.918Z,18.14
2022-08-21T06:48:59.181Z,18.22
2022-08-21T06:51:28.684Z,18.30
2022-08-21T06:53:59.457Z,18.38
2022-08-21T06:56:29.434Z,18.45
2022-08-21T06:59:00.205Z,18.53
2022-08-21T07:01:29.552Z,18.60
2022-08-21T07:03:58.117Z,18.68
2022-08-21T07:06:26.936Z,18.79
2022-08-21T07:08:58.934Z,18.97
2022-08-21T07:11:29.231Z,19.31
2022-08-21T07:13:58.066Z,19.95
2022-08-21T07:16:27.083Z,20.72
2022-08-21T07:18:55.522Z,21.50
2022-08-21T07:21:26.199Z,22.25
2022-08-21T07:23:55.557Z,22.92
2022-08-21T07:26:25.624Z,23.53
2022-08-21T07:28:56.188Z,24.08
2022-08-21T07:31:27.070Z,24.54
2022-08-21T07:33:55.832Z,24.96
2022-08-21T07:36:24.503Z,25.33
2022-08-21T07:38:53.287Z,25.53
2022-08-21T07:41:26.327Z,25.70
2022-08-21T07:43:56.248Z,25.82
2022-08-21T07:46:25.752Z,25.91
2022-08-21T07:48:54.473Z,25.97
2022-08-21T07:51:28.540Z,26.12
2022-08-21T07:54:00.205Z,26.22
2022-08-21T07:56:29.197Z,26.37
2022-08-21T07:58:58.935Z,26.44
2022-08-21T08:01:28.134Z,26.56
2022-08-21T08:03:57.188Z,26.76
2022-08-21T08:06:26.949Z,26.92
2022-08-21T08:08:55.358Z,27.15
2022-08-21T08:11:23.773Z,27.40
2022-08-21T08:13:54.597Z,27.60
2022-08-21T08:16:24.414Z,27.80
2022-08-21T08:18:52.781Z,27.83
2022-08-21T08:21:21.871Z,27.94
2022-08-21T08:23:50.740Z,28.08
2022-08-21T08:26:19.156Z,28.21
2022-08-21T08:28:48.709Z,28.42
2022-08-21T08:31:17.093Z,28.72
2022-08-21T08:33:46.962Z,29.01
2022-08-21T08:36:17.162Z,29.29
2022-08-21T08:38:48.889Z,29.62
2022-08-21T08:41:22.289Z,29.87
2022-08-21T08:43:55.687Z,30.08
2022-08-21T08:46:32.945Z,30.21
2022-08-21T08:49:08.798Z,30.46
2022-08-21T08:51:48.502Z,30.67
2022-08-21T08:54:32.443Z,30.88
2022-08-21T08:57:02.532Z,30.99
2022-08-21T08:59:40.589Z,31.29
2022-08-21T09:02:11.941Z,31.47
2022-08-21T09:04:42.810Z,31.51
2022-08-21T09:07:21.960Z,31.71
2022-08-21T09:10:04.104Z,31.92
2022-08-21T09:12:46.921Z,32.08
2022-08-21T09:15:30.523Z,32.33
2022-08-21T09:18:29.197Z,32.53
2022-08-21T09:21:11.958Z,32.70
2022-08-21T09:23:52.288Z,32.80
2022-08-21T09:26:24.812Z,32.97
2022-08-21T09:28:57.099Z,33.15
2022-08-21T09:31:31.439Z,33.33
2022-08-21T09:34:01.937Z,33.49
2022-08-21T09:36:40.408Z,33.52
2022-08-21T09:39:11.045Z,33.61
2022-08-21T09:41:40.864Z,33.71
2022-08-21T09:44:10.725Z,33.83
2022-08-21T09:46:39.194Z,33.94
2022-08-21T09:49:13.443Z,34.08
2022-08-21T09:51:55.190Z,34.06
2022-08-21T09:54:31.384Z,34.30
2022-08-21T09:57:20.365Z,34.52
2022-08-21T09:59:49.615Z,34.42
2022-08-21T10:02:32.797Z,34.36
2022-08-21T10:05:04.145Z,34.07
2022-08-21T10:07:38.402Z,33.79
2022-08-21T10:10:10.741Z,33.68
2022-08-21T10:12:51.853Z,33.68
2022-08-21T10:15:26.429Z,33.93
2022-08-21T10:18:05.937Z,34.08
2022-08-21T10:20:46.257Z,33.95
2022-08-21T10:23:37.764Z,33.88
2022-08-21T10:26:22.979Z,33.88
2022-08-21T10:29:02.597Z,34.14
2022-08-21T10:31:45.211Z,34.27
2022-08-21T10:34:31.652Z,34.45
2022-08-21T10:37:19.885Z,34.65
2022-08-21T10:40:03.089Z,34.60
2022-08-21T10:42:41.134Z,34.52
2022-08-21T10:45:24.437Z,34.55
2022-08-21T10:47:59.137Z,34.66
2022-08-21T10:50:33.978Z,34.31
2022-08-21T10:53:18.020Z,33.94
2022-08-21T10:55:58.195Z,34.06
2022-08-21T10:58:32.244Z,34.29
2022-08-21T11:01:14.203Z,34.60
2022-08-21T11:03:47.699Z,34.97
2022-08-21T11:06:22.864Z,35.20
2022-08-21T11:09:00.620Z,35.33
2022-08-21T11:11:38.252Z,35.36
2022-08-21T11:14:22.576Z,35.48
2022-08-21T11:16:59.431Z,35.72
2022-08-21T11:19:34.205Z,35.98
2022-08-21T11:22:15.402Z,36.17
2022-08-21T11:24:52.672Z,36.29
2022-08-21T11:27:28.674Z,36.28
2022-08-21T11:30:00.885Z,36.29
2022-08-21T11:32:57.452Z,36.31
2022-08-21T11:35:39.839Z,36.49
2022-08-21T11:38:30.481Z,36.63
2022-08-21T11:41:25.401Z,36.73
2022-08-21T11:44:14.091Z,36.77
2022-08-21T11:46:51.331Z,36.81
2022-08-21T11:49:43.708Z,36.53
2022-08-21T11:52:20.418Z,36.63
2022-08-21T11:54:55.502Z,36.64
2022-08-21T11:57:31.280Z,36.59
2022-08-21T12:00:09.286Z,36.51
2022-08-21T12:02:47.155Z,36.61
2022-08-21T12:05:31.898Z,36.75
2022-08-21T12:08:08.949Z,36.97
2022-08-21T12:10:41.913Z,37.16
2022-08-21T12:13:23.385Z,37.27
2022-08-21T12:16:13.852Z,37.46
2022-08-21T12:18:43.591Z,37.63
2022-08-21T12:21:26.925Z,37.62
2022-08-21T12:24:17.177Z,37.51
2022-08-21T12:26:53.099Z,37.59
2022-08-21T12:29:27.733Z,37.72
2022-08-21T12:32:02.213Z,37.63
2022-08-21T12:34:38.511Z,37.68
2022-08-21T12:37:17.401Z,37.89
2022-08-21T12:39:50.504Z,38.05
2022-08-21T12:42:24.941Z,38.35
2022-08-21T12:45:00.636Z,38.65
2022-08-21T12:47:36.844Z,38.89
2022-08-21T12:50:09.354Z,39.16
2022-08-21T12:52:46.122Z,39.42
2022-08-21T12:55:16.725Z,39.56
2022-08-21T12:57:45.103Z,39.76
2022-08-21T13:00:17.040Z,40.00
2022-08-21T13:02:51.721Z,40.28
2022-08-21T13:05:32.958Z,40.51
2022-08-21T13:08:06.481Z,40.28
2022-08-21T13:10:36.907Z,39.62
2022-08-21T13:13:12.297Z,39.19
2022-08-21T13:15:47.757Z,38.61
2022-08-21T13:18:26.257Z,38.40
2022-08-21T13:21:04.554Z,38.33
2022-08-21T13:23:33.544Z,38.35
2022-08-21T13:26:03.755Z,38.59
2022-08-21T13:28:38.660Z,38.87
2022-08-21T13:31:12.201Z,39.23
2022-08-21T13:33:43.469Z,39.54
2022-08-21T13:36:19.294Z,39.82
2022-08-21T13:38:48.498Z,40.02
2022-08-21T13:41:24.495Z,39.86
2022-08-21T13:44:03.029Z,39.15
2022-08-21T13:46:35.456Z,38.21
2022-08-21T13:49:07.977Z,37.69
2022-08-21T13:51:37.226Z,37.74
2022-08-21T13:54:23.142Z,37.63
2022-08-21T13:56:51.782Z,37.79
2022-08-21T13:59:29.857Z,37.77
2022-08-21T14:02:02.406Z,38.12
2022-08-21T14:04:40.148Z,38.54
2022-08-21T14:07:19.932Z,38.92
2022-08-21T14:09:49.485Z,39.14
2022-08-21T14:12:30.189Z,39.39
2022-08-21T14:15:00.660Z,39.25
2022-08-21T14:17:34.166Z,39.16
2022-08-21T14:20:06.363Z,39.18
2022-08-21T14:22:40.936Z,38.91
2022-08-21T14:25:15.309Z,38.70
2022-08-21T14:27:52.406Z,38.72
2022-08-21T14:30:32.582Z,38.68
2022-08-21T14:33:01.737Z,38.59
2022-08-21T14:35:31.970Z,38.70
2022-08-21T14:38:00.676Z,38.77
2022-08-21T14:40:29.465Z,39.04
2022-08-21T14:42:58.926Z,39.32
2022-08-21T14:45:31.068Z,39.52
2022-08-21T14:48:00.898Z,39.75
2022-08-21T14:50:30.813Z,39.99
2022-08-21T14:52:59.300Z,40.10
2022-08-21T14:55:29.065Z,40.22
2022-08-21T14:57:59.627Z,40.21
2022-08-21T15:00:35.735Z,40.19
2022-08-21T15:03:05.197Z,40.33
2022-08-21T15:05:34.970Z,40.52
2022-08-21T15:08:04.023Z,40.67
2022-08-21T15:10:34.868Z,40.73
2022-08-21T15:13:04.563Z,40.67
2022-08-21T15:15:40.657Z,40.66
2022-08-21T15:18:09.769Z,40.54
2022-08-21T15:20:40.254Z,40.51
2022-08-21T15:23:14.758Z,40.52
2022-08-21T15:25:44.475Z,40.56
2022-08-21T15:28:14.589Z,40.47
2022-08-21T15:30:44.828Z,40.08
2022-08-21T15:33:13.484Z,39.69
2022-08-21T15:35:43.320Z,39.33
2022-08-21T15:38:11.828Z,39.28
2022-08-21T15:40:47.737Z,39.40
2022-08-21T15:43:30.320Z,39.39
2022-08-21T15:46:01.700Z,39.44
2022-08-21T15:48:30.607Z,39.54
2022-08-21T15:51:00.334Z,39.58
2022-08-21T15:53:28.763Z,39.57
2022-08-21T15:55:57.148Z,39.58
2022-08-21T15:58:25.809Z,39.60
2022-08-21T16:00:54.193Z,39.57
2022-08-21T16:03:23.051Z,39.53
2022-08-21T16:05:53.356Z,39.32
2022-08-21T16:08:23.398Z,39.08
2022-08-21T16:10:52.892Z,38.80
2022-08-21T16:13:27.724Z,38.66
2022-08-21T16:15:56.435Z,38.69
2022-08-21T16:18:26.584Z,38.63
2022-08-21T16:20:55.406Z,38.58
2022-08-21T16:23:25.192Z,38.55
2022-08-21T16:25:53.924Z,38.51
2022-08-21T16:28:24.677Z,38.41
2022-08-21T16:30:53.404Z,38.30
2022-08-21T16:33:36.848Z,37.98
2022-08-21T16:36:07.293Z,37.55
2022-08-21T16:38:38.866Z,37.33
2022-08-21T16:41:12.107Z,37.31
2022-08-21T16:43:42.782Z,37.21
2022-08-21T16:46:14.112Z,36.82
2022-08-21T16:48:44.883Z,36.22
2022-08-21T16:51:13.835Z,35.69
2022-08-21T16:53:44.292Z,35.12
2022-08-21T16:56:16.725Z,34.56
2022-08-21T16:58:48.629Z,33.98
2022-08-21T17:01:20.971Z,33.46
2022-08-21T17:03:51.754Z,33.03
2022-08-21T17:06:22.025Z,32.59
2022-08-21T17:08:53.037Z,32.23
2022-08-21T17:11:36.494Z,31.91
2022-08-21T17:14:12.840Z,31.57
2022-08-21T17:16:45.486Z,31.33
2022-08-21T17:19:14.704Z,31.09
2022-08-21T17:21:43.344Z,30.87
2022-08-21T17:24:15.725Z,30.68
2022-08-21T17:26:45.605Z,30.51
2022-08-21T17:29:16.092Z,30.32
2022-08-21T17:31:45.648Z,30.16
2022-08-21T17:34:16.243Z,29.95
2022-08-21T17:36:44.622Z,29.76
2022-08-21T17:39:22.507Z,29.56
2022-08-21T17:42:06.496Z,29.36
2022-08-21T17:44:35.922Z,29.23
2022-08-21T17:47:04.685Z,29.05
2022-08-21T17:49:33.425Z,28.89
2022-08-21T17:52:01.853Z,28.75
2022-08-21T17:54:32.100Z,28.62
2022-08-21T17:57:01.076Z,28.50
2022-08-21T17:59:29.918Z,28.40
2022-08-21T18:02:01.436Z,28.29
2022-08-21T18:04:31.059Z,28.18
2022-08-21T18:06:59.521Z,28.06
2022-08-21T18:09:28.458Z,27.92
2022-08-21T18:12:00.107Z,27.73
2022-08-21T18:14:33.441Z,27.53
2022-08-21T18:17:03.269Z,27.35
2022-08-21T18:19:31.659Z,27.21
2022-08-21T18:22:04.428Z,27.09
2022-08-21T18:24:33.352Z,27.00
2022-08-21T18:27:04.196Z,26.92
2022-08-21T18:29:32.913Z,26.83
2022-08-21T18:32:03.221Z,26.75
2022-08-21T18:34:34.904Z,26.66
2022-08-21T18:37:05.156Z,26.55
2022-08-21T18:39:36.793Z,26.46
2022-08-21T18:42:11.984Z,26.37
2022-08-21T18:44:40.980Z,26.25
2022-08-21T18:47:14.901Z,26.17
2022-08-21T18:49:43.612Z,26.08
2022-08-21T18:52:20.284Z,25.95
2022-08-21T18:54:49.745Z,25.83
2022-08-21T18:57:20.904Z,25.73
2022-08-21T18:59:49.558Z,25.64
2022-08-21T19:02:17.913Z,25.58
2022-08-21T19:04:48.134Z,25.52
2022-08-21T19:07:19.731Z,25.47
2022-08-21T19:10:07.613Z,25.42
2022-08-21T19:12:41.521Z,25.36
2022-08-21T19:15:15.582Z,25.28
2022-08-21T19:17:47.024Z,25.23
2022-08-21T19:20:36.427Z,25.16
2022-08-21T19:23:07.433Z,25.11
2022-08-21T19:25:37.373Z,25.03
2022-08-21T19:28:14.263Z,24.95
2022-08-21T19:30:58.211Z,24.86
2022-08-21T19:33:34.074Z,24.79
2022-08-21T19:36:04.290Z,24.73
2022-08-21T19:38:32.919Z,24.65
2022-08-21T19:41:02.159Z,24.56
2022-08-21T19:43:35.165Z,24.45
2022-08-21T19:46:04.016Z,24.34
2022-08-21T19:48:33.583Z,24.24
2022-08-21T19:51:02.078Z,24.15
2022-08-21T19:53:30.443Z,24.08
2022-08-21T19:55:58.969Z,24.01
2022-08-21T19:58:38.914Z,23.93
2022-08-21T20:01:16.838Z,23.86
2022-08-21T20:03:53.812Z,23.78
2022-08-21T20:06:23.889Z,23.73
2022-08-21T20:08:54.676Z,23.65
2022-08-21T20:11:31.285Z,23.57
2022-08-21T20:14:02.124Z,23.50
2022-08-21T20:16:32.157Z,23.43
2022-08-21T20:19:03.306Z,23.34
2022-08-21T20:21:43.481Z,23.22
2022-08-21T20:24:14.707Z,23.14
2022-08-21T20:26:48.760Z,23.10
2022-08-21T20:29:23.863Z,23.04
2022-08-21T20:31:52.793Z,23.01
2022-08-21T20:34:21.328Z,23.00
2022-08-21T20:36:50.016Z,22.99
2022-08-21T20:39:23.948Z,22.99
2022-08-21T20:41:53.905Z,22.97
2022-08-21T20:44:29.657Z,22.96
2022-08-21T20:46:59.028Z,22.95
2022-08-21T20:49:34.595Z,22.95
2022-08-21T20:52:05.033Z,22.93
2022-08-21T20:54:41.627Z,22.90
2022-08-21T20:57:16.096Z,22.87
2022-08-21T20:59:54.932Z,22.83
2022-08-21T21:02:38.719Z,22.79
2022-08-21T21:05:16.112Z,22.75
2022-08-21T21:08:02.348Z,22.69
2022-08-21T21:10:38.352Z,22.66
2022-08-21T21:13:21.165Z,22.59
2022-08-21T21:15:56.596Z,22.49
2022-08-21T21:18:32.491Z,22.43
2022-08-21T21:21:06.222Z,22.29
2022-08-21T21:23:45.349Z,22.23
2022-08-21T21:26:19.385Z,22.19
2022-08-21T21:28:55.876Z,22.15
2022-08-21T21:31:29.541Z,22.13
2022-08-21T21:34:00.777Z,22.04
2022-08-21T21:36:43.791Z,22.03
2022-08-21T21:39:36.348Z,22.01
2022-08-21T21:42:12.542Z,21.95
2022-08-21T21:45:09.611Z,21.95
2022-08-21T21:47:59.060Z,21.96
2022-08-21T21:50:49.551Z,21.93
2022-08-21T21:53:37.994Z,21.88
2022-08-21T21:56:18.449Z,21.83
2022-08-21T21:59:29.924Z,21.74
2022-08-21T22:02:06.996Z,21.68
2022-08-21T22:04:50.967Z,21.60
2022-08-21T22:07:32.082Z,21.52
2022-08-21T22:10:30.058Z,21.42
2022-08-21T22:13:13.612Z,21.36
2022-08-21T22:15:55.041Z,21.27
2022-08-21T22:18:28.001Z,21.29
2022-08-21T22:21:05.290Z,21.28
2022-08-21T22:23:39.535Z,21.27
2022-08-21T22:26:14.488Z,21.26
2022-08-21T22:28:47.701Z,21.22
2022-08-21T22:31:21.624Z,21.20
2022-08-21T22:34:17.998Z,21.16
2022-08-21T22:36:59.391Z,21.14
2022-08-21T22:39:38.584Z,21.11
2022-08-21T22:42:13.519Z,21.09
2022-08-21T22:44:52.900Z,21.08
2022-08-21T22:47:24.988Z,21.09
2022-08-21T22:49:59.636Z,21.06
2022-08-21T22:52:35.269Z,21.05
2022-08-21T22:55:24.165Z,21.04
2022-08-21T22:58:10.526Z,21.03
2022-08-21T23:00:50.549Z,21.04
2022-08-21T23:03:33.987Z,21.04
2022-08-21T23:06:13.067Z,21.05
2022-08-21T23:08:44.068Z,21.04
2022-08-21T23:11:17.757Z,21.04
2022-08-21T23:13:51.016Z,21.03
2022-08-21T23:19:50.789Z,20.95
2022-08-21T23:22:37.292Z,20.95
2022-08-21T23:25:32.643Z,20.94
2022-08-21T23:28:13.629Z,20.98
2022-08-21T23:30:54.432Z,20.98
2022-08-21T23:33:44.845Z,21.00
2022-08-21T23:36:41.088Z,21.03
2022-08-21T23:39:26.069Z,21.04
2022-08-21T23:42:02.185Z,21.06
2022-08-21T23:44:47.317Z,21.07
2022-08-21T23:47:34.977Z,21.07
2022-08-21T23:50:14.012Z,21.08
2022-08-21T23:53:00.688Z,21.08
2022-08-21T23:56:01.112Z,21.07
2022-08-21T23:58:45.389Z,21.07
